Latest Coastal Weather Observations for Learmonth

IDW60701

Issued at 11:53 am WST Tuesday 24 October 2017 (issued every 10 minutes, with the page automatically refreshed every 10 minutes)

About coastal observations | Map of coastal stations | Coastal observations for WA | Marine services | Other Formats
Station Details ID: 005007 Name: LEARMONTH AIRPORT Lat: -22.24 Lon: 114.10 Height: 5.0 m
Data from the previous 72 hours. | See also: Recent months at Learmonth
Date/Time
WST
Temp
°C
Wind Pressure Rain since
9am
mm
Weather Cloud Vis
km
Sea
Height
m
Swell
Dir  Spd
kts
Gust
kts
hPa Trend Height
m
Period
s
Dir
24/11:30am 33.3 SW 6 9 1014.0 - 0.0 - - 10 - - - -
24/11:00am 32.0 SSE 11 16 1014.3 - 0.0 - - 10 - - - -
24/10:30am 31.3 SSE 12 17 1014.7 - 0.0 - - 10 - - - -
24/10:00am 29.6 SSE 13 17 1015.0 - 0.0 - - 10 - - - -
24/09:30am 28.7 S 12 16 1015.3 - 0.0 - - 10 - - - -
24/09:00am 27.0 S 12 16 1015.3 - 0.0 - - 10 - - - -
24/08:30am 25.1 S 13 16 1015.4 - 0.0 - - 10 - - - -
24/08:00am 23.3 S 14 18 1015.2 - 0.0 - - 10 - - - -
24/07:30am 21.4 SSW 13 17 1015.1 - 0.0 - - 10 - - - -
24/07:00am 19.8 SSW 14 18 1014.9 - 0.0 - - 10 - - - -
24/06:30am 18.5 SSW 12 17 1014.6 - 0.0 - - 10 - - - -
24/06:00am 17.7 SSW 11 15 1014.2 - 0.0 - - 10 - - - -
24/05:30am 17.9 SSW 13 17 1014.1 - 0.0 - - 10 - - - -
24/05:00am 18.2 SSW 13 18 1013.8 - 0.0 - - 10 - - - -
24/04:30am 18.5 SSW 12 16 1013.7 - 0.0 - - 10 - - - -
24/04:00am 18.7 SSW 11 15 1013.6 - 0.0 - - 10 - - - -
24/03:30am 19.0 SSW 13 19 1013.4 - 0.0 - - 10 - - - -
24/03:00am 19.2 SSW 14 19 1013.1 - 0.0 - - 10 - - - -
24/02:30am 19.5 SSW 16 20 1013.2 - 0.0 - - 10 - - - -
24/02:00am 19.8 SSW 13 17 1013.2 - 0.0 - - 10 - - - -
24/01:30am 20.0 SSW 15 19 1013.4 - 0.0 - - 10 - - - -
24/01:00am 20.4 SSW 15 19 1013.6 - 0.0 - - 10 - - - -
24/12:30am 20.7 SSW 14 20 1013.8 - 0.0 - - 10 - - - -
24/12:00am 20.9 SSW 14 18 1013.8 - 0.0 - - 10 - - - -
 
Date/Time
WST
Temp
°C
Wind Pressure Rain since
9am
mm
Weather Cloud Vis
km
Sea
Height
m
Swell
Dir  Spd
kts
Gust
kts
hPa Trend Height
m
Period
s
Dir
23/11:30pm 21.1 SSW 15 20 1014.0 - 0.0 - - 10 - - - -
23/11:00pm 21.5 SSW 15 19 1014.2 - 0.0 - - 10 - - - -
23/10:30pm 21.8 SSW 15 19 1014.1 - 0.0 - - 10 - - - -
23/10:00pm 22.1 SSW 16 20 1014.0 - 0.0 - - 10 - - - -
23/09:30pm 22.6 SW 15 18 1014.0 - 0.0 - - 10 - - - -
23/09:00pm 22.8 SW 15 20 1013.7 - 0.0 - - 10 - - - -
23/08:30pm 23.1 SW 14 19 1013.6 - 0.0 - - 10 - - - -
23/08:00pm 23.7 SW 15 19 1013.1 - 0.0 - - 10 - - - -
23/07:30pm 25.1 SW 13 16 1012.8 - 0.0 - - 10 - - - -
23/07:00pm 26.4 SSW 13 17 1012.4 - 0.0 - - 10 - - - -
23/06:30pm 29.2 SW 14 18 1011.8 - 0.0 - - 10 - - - -
23/06:00pm 31.4 SW 16 20 1011.5 - 0.0 - - 10 - - - -
23/05:30pm 33.1 SSW 17 21 1011.3 - 0.0 - - 10 - - - -
23/05:00pm 34.6 SSW 16 21 1011.2 - 0.0 - - 10 - - - -
23/04:30pm 35.5 SSW 14 19 1011.0 - 0.0 - - 10 - - - -
23/04:00pm 36.4 SSW 15 20 1011.0 - 0.0 - - 10 - - - -
23/03:30pm 36.7 SSW 13 19 1011.1 - 0.0 - - 10 - - - -
23/03:00pm 34.5 NNW 7 10 1011.2 - 0.0 - - 10 - - - -
23/02:30pm 34.7 NNE 8 11 1011.5 - 0.0 - - 10 - - - -
23/02:00pm 32.8 ENE 6 11 1011.7 - 0.0 - - 10 - - - -
23/01:30pm 32.2 ENE 10 13 1012.0 - 0.0 - - 10 - - - -
23/01:00pm 31.3 E 11 13 1012.2 - 0.0 - - 10 - - - -
23/12:30pm 30.5 ENE 11 12 1012.8 - 0.0 - - 10 - - - -
23/12:00pm 29.8 ENE 11 13 1013.1 - 0.0 - - 10 - - - -
23/11:30am 28.5 ENE 11 13 1013.4 - 0.0 - - 10 - - - -
23/11:00am 27.7 ENE 13 16 1013.6 - 0.0 - - 10 - - - -
23/10:30am 29.1 SE 13 17 1013.7 - 0.0 - - 10 - - - -
23/10:00am 29.1 SE 14 18 1013.9 - 0.0 - - 10 - - - -
23/09:30am 27.8 SSE 12 16 1014.1 - 0.0 - - 10 - - - -
23/09:00am 26.8 S 13 17 1013.8 - 0.0 - - 10 - - - -
23/08:30am 23.8 S 15 20 1013.5 - 0.0 - - 10 - - - -
23/08:00am 22.7 S 14 17 1013.6 - 0.0 - - 10 - - - -
23/07:30am 21.5 S 13 17 1013.6 - 0.0 - - 10 - - - -
23/07:00am 19.4 SSW 11 14 1013.5 - 0.0 - - 10 - - - -
23/06:30am 18.0 SSW 10 14 1013.4 - 0.0 - - 10 - - - -
23/06:00am 17.3 SSW 11 14 1013.1 - 0.0 - - 10 - - - -
23/05:30am 17.5 SSW 11 15 1012.9 - 0.0 - - 10 - - - -
23/05:00am 17.8 SSW 11 15 1012.8 - 0.0 - - 10 - - - -
23/04:30am 18.0 SSW 13 16 1012.6 - 0.0 - - 10 - - - -
23/04:00am 18.1 SSW 13 16 1012.6 - 0.0 - - 10 - - - -
23/03:30am 18.4 SSW 13 17 1012.5 - 0.0 - - 10 - - - -
23/03:00am 18.7 SSW 13 17 1012.3 - 0.0 - - 10 - - - -
23/02:30am 19.1 SSW 15 20 1012.4 - 0.0 - - 10 - - - -
23/02:00am 19.4 SSW 14 19 1012.5 - 0.0 - - 10 - - - -
23/01:30am 19.6 SSW 14 19 1012.7 - 0.0 - - 10 - - - -
23/01:00am 19.9 SSW 13 20 1012.8 - 0.0 - - 10 - - - -
23/12:30am 20.2 SSW 14 18 1012.9 - 0.0 - - 10 - - - -
23/12:00am 20.5 SW 14 19 1013.0 - 0.0 - - 10 - - - -
 
Date/Time
WST
Temp
°C
Wind Pressure Rain since
9am
mm
Weather Cloud Vis
km
Sea
Height
m
Swell
Dir  Spd
kts
Gust
kts
hPa Trend Height
m
Period
s
Dir
22/11:30pm 20.8 SW 16 20 1013.3 - 0.0 - - 10 - - - -
22/11:00pm 21.0 SW 16 20 1013.5 - 0.0 - - 10 - - - -
22/10:30pm 21.5 SSW 14 19 1013.7 - 0.0 - - 10 - - - -
22/10:00pm 22.0 SW 13 17 1013.6 - 0.0 - - 10 - - - -
22/09:30pm 22.5 SW 14 20 1013.3 - 0.0 - - 10 - - - -
22/09:00pm 23.0 SW 13 16 1013.0 - 0.0 - - 10 - - - -
22/08:30pm 23.1 SW 12 17 1012.9 - 0.0 - - 10 - - - -
22/08:00pm 23.3 SW 12 16 1012.8 - 0.0 - - 10 - - - -
22/07:30pm 23.9 SW 13 18 1012.5 - 0.0 - - 10 - - - -
22/07:00pm 24.8 SW 13 18 1012.2 - 0.0 - - 10 - - - -
22/06:30pm 26.3 SW 14 19 1011.7 - 0.0 - - 10 - - - -
22/06:00pm 28.3 SW 16 19 1011.1 - 0.0 - - 10 - - - -
22/05:30pm 30.5 SW 16 20 1010.7 - 0.0 - - 10 - - - -
22/05:00pm 32.4 SW 15 19 1010.5 - 0.0 - - 10 - - - -
22/04:30pm 34.0 SW 15 20 1010.4 - 0.0 - - 10 - - - -
22/04:00pm 34.4 SW 15 19 1010.4 - 0.0 - - 10 - - - -
22/03:30pm 35.0 WSW 14 18 1010.4 - 0.0 - - 10 - - - -
22/03:00pm 36.8 WSW 16 21 1010.2 - 0.0 - - 10 - - - -
22/02:30pm 35.8 W 15 20 1010.3 - 0.0 - - 10 - - - -
22/02:00pm 37.0 W 11 16 1010.6 - 0.0 - - 10 - - - -
22/01:30pm 37.6 WSW 11 17 1010.7 - 0.0 - - 10 - - - -
22/01:00pm 37.1 SSW 8 16 1011.0 - 0.0 - - 10 - - - -
22/12:30pm 36.1 SW 6 13 1011.5 - 0.0 - - 10 - - - -
22/12:00pm 35.2 S 10 15 1011.8 - 0.0 - - 10 - - - -
22/11:30am 34.3 S 8 11 1012.4 - 0.0 - - 10 - - - -
22/11:00am 32.0 SSE 10 16 1012.9 - 0.0 - - 10 - - - -
22/10:30am 30.6 SSE 10 13 1013.4 - 0.0 - - 10 - - - -
22/10:00am 28.9 S 12 16 1013.8 - 0.0 - - 10 - - - -
22/09:30am 27.4 S 11 15 1014.1 - 0.0 - - 10 - - - -
22/09:00am 25.6 SSE 12 16 1014.4 - 0.0 - - 10 - - - -
22/08:30am 25.0 S 13 16 1014.4 - 0.0 - - 10 - - - -
22/08:00am 24.0 S 11 15 1014.0 - 0.0 - - 10 - - - -
22/07:30am 21.3 SSW 13 16 1013.8 - 0.0 - - 10 - - - -
22/07:00am 19.9 SSW 11 15 1013.7 - 0.0 - - 10 - - - -
22/06:30am 18.5 SW 10 13 1013.8 - 0.0 - - 10 - - - -
22/06:00am 17.7 SW 10 12 1013.5 - 0.0 - - 10 - - - -
22/05:30am 17.8 SW 9 11 1013.3 - 0.0 - - 10 - - - -
22/05:00am 17.8 SW 9 11 1013.2 - 0.0 - - 10 - - - -
22/04:30am 17.9 SW 9 12 1013.1 - 0.0 - - 10 - - - -
22/04:00am 17.9 SW 9 11 1013.1 - 0.0 - - 10 - - - -
22/03:30am 18.2 SSW 8 10 1013.1 - 0.0 - - 10 - - - -
22/03:00am 18.4 SSW 10 12 1012.9 - 0.0 - - 10 - - - -
22/02:30am 18.7 SSW 11 14 1013.0 - 0.0 - - 10 - - - -
22/02:00am 19.1 SSW 13 17 1013.1 - 0.0 - - 10 - - - -
22/01:30am 19.4 SSW 12 16 1013.5 - 0.0 - - 10 - - - -
22/01:00am 19.6 SSW 11 15 1013.8 - 0.0 - - 10 - - - -
22/12:30am 19.9 SSW 12 16 1013.8 - 0.0 - - 10 - - - -
22/12:00am 20.1 SSW 13 16 1013.6 - 0.0 - - 10 - - - -
 
Date/Time
WST
Temp
°C
Wind Pressure Rain since
9am
mm
Weather Cloud Vis
km
Sea
Height
m
Swell
Dir  Spd
kts
Gust
kts
hPa Trend Height
m
Period
s
Dir
21/11:30pm 20.4 SSW 15 20 1013.9 - 0.0 - - 10 - - - -
21/11:00pm 20.6 SSW 15 21 1014.2 - 0.0 - - 10 - - - -
21/10:30pm 20.8 SSW 15 20 1014.4 - 0.0 - - 10 - - - -
21/10:00pm 21.0 SSW 14 18 1014.6 - 0.0 - - 10 - - - -
21/09:30pm 21.4 SSW 16 22 1014.2 - 0.0 - - 10 - - - -
21/09:00pm 21.8 SSW 18 22 1013.9 - 0.0 - - 10 - - - -
21/08:30pm 22.2 SSW 17 23 1013.7 - 0.0 - - 10 - - - -
21/08:00pm 22.9 SW 18 22 1013.4 - 0.0 - - 10 - - - -
21/07:30pm 23.6 SW 18 22 1012.9 - 0.0 - - 10 - - - -
21/07:00pm 24.4 SW 18 23 1012.6 - 0.0 - - 10 - - - -
21/06:30pm 25.6 SW 19 24 1012.1 - 0.0 - - 10 - - - -
21/06:00pm 28.5 SW 18 23 1011.6 - 0.0 - - 10 - - - -
21/05:30pm 30.6 SW 17 23 1011.5 - 0.0 - - 10 - - - -
21/05:00pm 31.3 SW 18 24 1011.4 - 0.0 - - 10 - - - -
21/04:30pm 31.9 SW 19 23 1011.3 - 0.0 - - 10 - - - -
21/04:00pm 33.7 SW 17 22 1011.3 - 0.0 - - 10 - - - -
21/03:30pm 34.9 SW 17 22 1011.3 - 0.0 - - 10 - - - -
21/03:00pm 36.2 WSW 17 24 1011.5 - 0.0 - - 10 - - - -
21/02:30pm 37.1 SW 16 20 1011.7 - 0.0 - - 10 - - - -
21/02:00pm 38.8 SSW 13 19 1011.8 - 0.0 - - 10 - - - -
21/01:30pm 39.0 SW 11 19 1012.0 - 0.0 - - 10 - - - -
21/01:00pm 38.5 SW 15 20 1012.3 - 0.0 - - 10 - - - -
21/12:30pm 37.9 S 10 17 1012.5 - 0.0 - - 10 - - - -
21/12:00pm 37.1 SSW 11 21 1012.9 - 0.0 - - 10 - - - -

Other Formats:

Comma delimited format used in spreadsheet applications
http://www.bom.gov.au/fwo/IDW60701/IDW60701.94302.axf

JavaScript Object Notation format (JSON) in row-major order
http://www.bom.gov.au/fwo/IDW60701/IDW60701.94302.json